Time;durP1;ratioP1;P1;durP2;ratioP2;P2;SDS_P1;SDS_P2;PMS_P1;PMS_P2;Temp;Humidity;BMP_temperature;BMP_pressure;BME280_temperature;BME280_humidity;BME280_pressure;Samples;Min_cycle;Max_cycle;Signal;HPM_P1;HPM_P2
2022/01/22 00:01:47;;;;;;;5.90;2.83;;;;;;;;;;5033161;28;20403;-66
2022/01/22 00:04:13;;;;;;;9.27;3.40;;;;;;;;;;5033353;28;20427;-65
2022/01/22 00:06:39;;;;;;;4.47;2.40;;;;;;;;;;5033153;28;20913;-66
2022/01/22 00:09:06;;;;;;;6.30;2.90;;;;;;;;;;5033362;28;20869;-65
2022/01/22 00:11:39;;;;;;;5.03;3.00;;;;;;;;;;5033084;28;20407;-65
2022/01/22 00:14:24;;;;;;;12.33;3.33;;;;;;;;;;5032877;28;20435;-66
2022/01/22 00:16:54;;;;;;;7.30;3.23;;;;;;;;;;5032971;28;20372;-66
2022/01/22 00:19:20;;;;;;;6.93;2.97;;;;;;;;;;5033280;28;20398;-66
2022/01/22 00:21:46;;;;;;;5.03;2.30;;;;;;;;;;5033148;28;20402;-65
2022/01/22 00:24:13;;;;;;;5.13;3.00;;;;;;;;;;5032877;28;20419;-66
2022/01/22 00:26:39;;;;;;;7.40;3.13;;;;;;;;;;5033282;28;20899;-66
2022/01/22 00:29:06;;;;;;;4.37;2.47;;;;;;;;;;5032750;28;20931;-65
2022/01/22 00:31:32;;;;;;;5.47;2.70;;;;;;;;;;5032822;28;20768;-66
2022/01/22 00:33:58;;;;;;;6.57;3.03;;;;;;;;;;5032729;28;20442;-66
2022/01/22 00:36:24;;;;;;;4.27;2.77;;;;;;;;;;5032590;28;20410;-66
2022/01/22 00:38:50;;;;;;;6.27;3.20;;;;;;;;;;5032869;28;20417;-65
2022/01/22 00:41:16;;;;;;;5.63;2.93;;;;;;;;;;5033327;28;20774;-65
2022/01/22 00:43:42;;;;;;;9.10;4.43;;;;;;;;;;5036392;28;20433;-65
2022/01/22 00:46:08;;;;;;;8.53;3.07;;;;;;;;;;5046331;28;20438;-66
2022/01/22 00:48:34;;;;;;;3.00;2.37;;;;;;;;;;5051209;28;21017;-65
2022/01/22 00:51:00;;;;;;;6.37;2.80;;;;;;;;;;5041179;28;20745;-65
2022/01/22 00:53:28;;;;;;;5.17;2.53;;;;;;;;;;5036716;28;20421;-66
2022/01/22 00:55:54;;;;;;;3.70;2.67;;;;;;;;;;5036493;28;20405;-65
2022/01/22 00:58:20;;;;;;;6.07;2.70;;;;;;;;;;5036506;28;20407;-65
2022/01/22 01:00:46;;;;;;;5.13;2.83;;;;;;;;;;5035041;28;20414;-65
2022/01/22 01:03:12;;;;;;;3.67;2.93;;;;;;;;;;5036206;28;20429;-65
2022/01/22 01:05:38;;;;;;;10.30;3.67;;;;;;;;;;5036504;28;20407;-65
2022/01/22 01:08:04;;;;;;;7.90;3.10;;;;;;;;;;5036036;28;20481;-66
2022/01/22 01:10:31;;;;;;;5.00;2.40;;;;;;;;;;5036074;28;20399;-66
2022/01/22 01:12:57;;;;;;;5.87;3.20;;;;;;;;;;5036316;28;20430;-65
2022/01/22 01:32:28;;;;;;;3.70;2.33;;;;;;;;;;5016394;28;20492;-65
2022/01/22 01:34:54;;;;;;;4.03;2.80;;;;;;;;;;5015958;28;20998;-65
2022/01/22 01:37:21;;;;;;;6.57;3.30;;;;;;;;;;5016002;28;20407;-65
2022/01/22 01:39:51;;;;;;;4.40;3.10;;;;;;;;;;5015893;28;20415;-65
2022/01/22 01:42:24;;;;;;;3.23;2.40;;;;;;;;;;5014846;28;20507;-65
2022/01/22 01:44:50;;;;;;;6.57;2.33;;;;;;;;;;5017801;28;20462;-64
2022/01/22 01:47:17;;;;;;;4.87;2.60;;;;;;;;;;5017943;28;20459;-66
2022/01/22 01:49:44;;;;;;;7.27;3.13;;;;;;;;;;5016136;28;20486;-64
2022/01/22 01:52:16;;;;;;;3.80;2.43;;;;;;;;;;5016934;28;20718;-64
2022/01/22 01:55:02;;;;;;;3.40;2.80;;;;;;;;;;5015331;28;20423;-63
2022/01/22 01:57:38;;;;;;;4.37;2.43;;;;;;;;;;5015668;28;20392;-63
2022/01/22 02:00:05;;;;;;;7.60;1.90;;;;;;;;;;5015572;28;20429;-63
2022/01/22 02:02:33;;;;;;;4.03;2.30;;;;;;;;;;5015641;28;20407;-63
2022/01/22 02:04:59;;;;;;;4.13;2.20;;;;;;;;;;5015674;28;20840;-64
2022/01/22 02:07:25;;;;;;;4.17;2.10;;;;;;;;;;5015591;28;20852;-64
2022/01/22 02:09:51;;;;;;;3.33;2.27;;;;;;;;;;5015772;28;20884;-64
2022/01/22 02:12:37;;;;;;;4.70;2.30;;;;;;;;;;5015492;28;20400;-64
2022/01/22 02:23:44;;;;;;;4.17;1.93;;;;;;;;;;5015141;28;20434;-64
2022/01/22 02:26:11;;;;;;;2.67;2.07;;;;;;;;;;5015375;28;20758;-64
2022/01/22 02:28:37;;;;;;;2.03;1.53;;;;;;;;;;5015246;28;20439;-64
2022/01/22 02:31:15;;;;;;;4.40;1.70;;;;;;;;;;5014889;28;20454;-64
2022/01/22 02:36:28;;;;;;;4.53;1.77;;;;;;;;;;5015815;28;20376;-64
2022/01/22 02:41:25;;;;;;;2.30;1.50;;;;;;;;;;5024465;28;20418;-64
2022/01/22 02:43:53;;;;;;;3.33;1.70;;;;;;;;;;5014920;28;20489;-64
2022/01/22 02:46:21;;;;;;;2.63;1.80;;;;;;;;;;5014932;28;20407;-64
2022/01/22 02:48:47;;;;;;;2.13;1.33;;;;;;;;;;5014324;28;20479;-64
2022/01/22 02:51:13;;;;;;;2.80;2.03;;;;;;;;;;5014769;28;20412;-64
2022/01/22 02:53:40;;;;;;;3.00;1.73;;;;;;;;;;5014413;28;20420;-64
2022/01/22 02:56:06;;;;;;;3.20;2.23;;;;;;;;;;5014861;28;20819;-64
2022/01/22 02:58:32;;;;;;;4.63;1.97;;;;;;;;;;5014578;28;20407;-64
2022/01/22 03:00:58;;;;;;;9.60;1.63;;;;;;;;;;5014661;28;20747;-64
2022/01/22 03:03:24;;;;;;;6.50;1.77;;;;;;;;;;5014541;28;20431;-64
2022/01/22 03:05:50;;;;;;;2.20;1.83;;;;;;;;;;5013806;28;20411;-64
2022/01/22 03:08:17;;;;;;;2.30;2.00;;;;;;;;;;5014246;28;20447;-64
2022/01/22 03:10:48;;;;;;;2.63;2.20;;;;;;;;;;5014442;28;20404;-64
2022/01/22 03:16:16;;;;;;;5.00;2.27;;;;;;;;;;5014371;28;20931;-64
2022/01/22 03:18:53;;;;;;;2.90;1.60;;;;;;;;;;5014130;28;20384;-64
2022/01/22 03:29:30;;;;;;;8.70;2.27;;;;;;;;;;5013989;28;20391;-65
2022/01/22 03:31:56;;;;;;;3.40;2.00;;;;;;;;;;5013819;28;20372;-65
2022/01/22 03:34:22;;;;;;;4.67;2.33;;;;;;;;;;5013505;28;20439;-65
2022/01/22 03:36:48;;;;;;;2.50;1.93;;;;;;;;;;5013841;28;20742;-64
2022/01/22 03:39:15;;;;;;;3.13;2.50;;;;;;;;;;5013929;28;20837;-64
2022/01/22 03:41:41;;;;;;;3.40;2.30;;;;;;;;;;5013621;28;20486;-64
2022/01/22 03:44:08;;;;;;;2.47;2.20;;;;;;;;;;5013802;28;20458;-64
2022/01/22 03:46:36;;;;;;;2.50;1.97;;;;;;;;;;5013831;28;20408;-64
2022/01/22 03:49:04;;;;;;;3.80;2.10;;;;;;;;;;5013419;28;20475;-64
2022/01/22 03:51:30;;;;;;;5.07;3.30;;;;;;;;;;5013642;28;20404;-64
2022/01/22 03:53:56;;;;;;;6.13;2.70;;;;;;;;;;5013269;28;20915;-64
2022/01/22 03:56:25;;;;;;;3.53;2.60;;;;;;;;;;5013400;28;20412;-64
2022/01/22 03:58:51;;;;;;;3.60;2.50;;;;;;;;;;5013448;28;20419;-64
2022/01/22 04:08:53;;;;;;;8.13;3.13;;;;;;;;;;5013290;28;20447;-64
2022/01/22 04:11:19;;;;;;;4.40;3.70;;;;;;;;;;5025770;28;20442;-64
2022/01/22 04:13:48;;;;;;;4.67;3.27;;;;;;;;;;5033117;28;20437;-64
2022/01/22 04:16:15;;;;;;;4.27;2.90;;;;;;;;;;5032860;28;20437;-64
2022/01/22 04:27:12;;;;;;;6.33;3.70;;;;;;;;;;5016999;28;20382;-67
2022/01/22 04:29:38;;;;;;;4.00;2.77;;;;;;;;;;5017225;28;20753;-64
2022/01/22 04:32:05;;;;;;;4.77;2.50;;;;;;;;;;5017027;28;20896;-64
2022/01/22 04:34:31;;;;;;;4.23;3.00;;;;;;;;;;5016817;28;20990;-64
2022/01/22 04:36:57;;;;;;;4.70;2.80;;;;;;;;;;5016872;28;20460;-64
2022/01/22 04:39:25;;;;;;;5.87;3.47;;;;;;;;;;5016933;28;20407;-65
2022/01/22 04:41:54;;;;;;;9.07;3.73;;;;;;;;;;5016986;28;20538;-64
2022/01/22 04:44:21;;;;;;;10.70;3.63;;;;;;;;;;5016696;28;20426;-64
2022/01/22 04:57:21;;;;;;;4.93;3.17;;;;;;;;;;5019955;28;20459;-64
2022/01/22 04:59:47;;;;;;;4.63;3.30;;;;;;;;;;5036064;28;20906;-64
2022/01/22 05:02:13;;;;;;;5.00;3.00;;;;;;;;;;5035125;28;20438;-64
2022/01/22 05:04:39;;;;;;;5.97;3.57;;;;;;;;;;5035744;28;20438;-64
2022/01/22 05:07:05;;;;;;;4.77;3.20;;;;;;;;;;5035953;28;20448;-64
2022/01/22 05:09:31;;;;;;;7.10;4.10;;;;;;;;;;5036106;28;20401;-64
2022/01/22 05:11:58;;;;;;;8.53;3.23;;;;;;;;;;5036075;28;20402;-65
2022/01/22 05:14:25;;;;;;;6.10;3.90;;;;;;;;;;5035879;28;20480;-65
2022/01/22 05:16:51;;;;;;;5.13;3.63;;;;;;;;;;5035921;28;20396;-64
2022/01/22 05:19:28;;;;;;;11.73;4.20;;;;;;;;;;5035720;28;20940;-65
2022/01/22 05:21:59;;;;;;;8.43;3.80;;;;;;;;;;5035894;28;20382;-64
2022/01/22 05:24:29;;;;;;;4.00;3.27;;;;;;;;;;5034726;28;20953;-64
2022/01/22 05:37:44;;;;;;;8.37;4.13;;;;;;;;;;5035948;28;20386;-64
2022/01/22 05:40:10;;;;;;;6.23;3.83;;;;;;;;;;5034229;28;20461;-64
2022/01/22 05:42:36;;;;;;;5.97;4.23;;;;;;;;;;5035256;28;20481;-64
2022/01/22 05:45:04;;;;;;;7.43;4.27;;;;;;;;;;5035421;28;20437;-64
2022/01/22 05:47:30;;;;;;;5.83;4.20;;;;;;;;;;5035214;28;20962;-64
2022/01/22 05:49:56;;;;;;;6.00;4.20;;;;;;;;;;5035209;28;20394;-64
2022/01/22 05:52:34;;;;;;;5.90;4.13;;;;;;;;;;5035143;28;20403;-64
2022/01/22 06:00:14;;;;;;;8.60;5.03;;;;;;;;;;5035156;28;20883;-64
2022/01/22 06:02:40;;;;;;;6.43;5.13;;;;;;;;;;5033809;28;20464;-64
2022/01/22 06:05:06;;;;;;;9.10;5.27;;;;;;;;;;5035013;28;20484;-64
2022/01/22 06:07:32;;;;;;;6.87;5.00;;;;;;;;;;5034892;28;20457;-64
2022/01/22 06:15:22;;;;;;;9.73;5.33;;;;;;;;;;5030189;28;20414;-65
2022/01/22 06:17:48;;;;;;;7.97;5.17;;;;;;;;;;5034837;28;20422;-65
2022/01/22 06:20:15;;;;;;;12.10;5.13;;;;;;;;;;5035113;28;20445;-65
2022/01/22 06:22:41;;;;;;;8.17;4.90;;;;;;;;;;5034842;28;20437;-65
2022/01/22 06:25:08;;;;;;;10.47;5.30;;;;;;;;;;5034869;28;20504;-65
2022/01/22 06:27:34;;;;;;;8.03;5.70;;;;;;;;;;5035037;28;20477;-65
2022/01/22 06:30:00;;;;;;;9.60;4.73;;;;;;;;;;5034906;28;20494;-65
2022/01/22 06:32:26;;;;;;;12.13;6.20;;;;;;;;;;5035216;28;20752;-65
2022/01/22 06:34:52;;;;;;;7.77;5.50;;;;;;;;;;5034611;28;20457;-65
2022/01/22 06:37:18;;;;;;;9.30;6.00;;;;;;;;;;5034818;28;20457;-65
2022/01/22 06:42:32;;;;;;;7.40;5.50;;;;;;;;;;5034626;28;20376;-65
2022/01/22 06:44:58;;;;;;;7.93;5.60;;;;;;;;;;5034693;28;20765;-65
2022/01/22 06:47:25;;;;;;;7.90;5.97;;;;;;;;;;5034177;28;20477;-65
2022/01/22 06:49:51;;;;;;;9.63;4.80;;;;;;;;;;5034282;28;20490;-65
2022/01/22 06:52:17;;;;;;;7.30;5.43;;;;;;;;;;5034344;28;20398;-65
2022/01/22 06:54:44;;;;;;;8.20;5.20;;;;;;;;;;5034252;28;20422;-65
2022/01/22 06:57:10;;;;;;;8.10;6.40;;;;;;;;;;5034609;28;20403;-65
2022/01/22 06:59:37;;;;;;;7.67;5.33;;;;;;;;;;5034516;28;20411;-65
2022/01/22 07:02:03;;;;;;;7.17;5.50;;;;;;;;;;5034722;28;20395;-65
2022/01/22 07:04:31;;;;;;;8.63;6.03;;;;;;;;;;5034479;28;20948;-65
2022/01/22 07:06:57;;;;;;;8.33;5.60;;;;;;;;;;5034195;28;20746;-65
2022/01/22 07:09:23;;;;;;;8.97;6.27;;;;;;;;;;5033853;28;20458;-66
2022/01/22 07:11:50;;;;;;;14.03;5.93;;;;;;;;;;5033862;28;20407;-65
2022/01/22 07:14:16;;;;;;;6.70;5.27;;;;;;;;;;5033758;28;20422;-65
2022/01/22 07:16:43;;;;;;;11.60;6.30;;;;;;;;;;5030884;28;20938;-65
2022/01/22 07:19:09;;;;;;;10.53;6.20;;;;;;;;;;5033448;28;20442;-65
2022/01/22 07:21:37;;;;;;;6.53;5.20;;;;;;;;;;5033755;28;20429;-65
2022/01/22 07:26:29;;;;;;;8.13;5.70;;;;;;;;;;5033864;28;20407;-65
2022/01/22 07:28:56;;;;;;;11.73;7.37;;;;;;;;;;5033434;28;20462;-66
2022/01/22 07:31:23;;;;;;;10.33;6.37;;;;;;;;;;5033599;28;20399;-65
2022/01/22 07:33:50;;;;;;;8.27;6.60;;;;;;;;;;5033506;28;20786;-65
2022/01/22 07:36:16;;;;;;;12.07;8.10;;;;;;;;;;5033447;28;20410;-65
2022/01/22 07:38:42;;;;;;;10.00;7.87;;;;;;;;;;5033627;28;20456;-65
2022/01/22 07:41:08;;;;;;;11.20;7.10;;;;;;;;;;5033423;28;20474;-65
2022/01/22 07:43:38;;;;;;;8.63;6.90;;;;;;;;;;5033474;28;20462;-65
2022/01/22 07:46:05;;;;;;;11.07;7.30;;;;;;;;;;5033034;28;20478;-66
2022/01/22 07:48:31;;;;;;;9.10;7.17;;;;;;;;;;5033268;28;20456;-66
2022/01/22 07:50:57;;;;;;;11.40;7.90;;;;;;;;;;5032758;28;20957;-65
2022/01/22 07:53:24;;;;;;;12.67;8.20;;;;;;;;;;5033054;28;20920;-64
2022/01/22 07:55:51;;;;;;;13.00;8.60;;;;;;;;;;5033370;28;20551;-64
2022/01/22 07:58:17;;;;;;;12.83;8.10;;;;;;;;;;5033172;28;20510;-65
2022/01/22 08:00:43;;;;;;;13.20;8.33;;;;;;;;;;5033134;28;20402;-65
2022/01/22 08:03:09;;;;;;;11.57;8.20;;;;;;;;;;5033237;28;20473;-66
2022/01/22 08:05:36;;;;;;;10.17;7.70;;;;;;;;;;5033037;28;20422;-66
2022/01/22 08:08:03;;;;;;;10.90;7.30;;;;;;;;;;5033194;28;20473;-66
2022/01/22 08:10:29;;;;;;;12.87;8.50;;;;;;;;;;5033263;28;20398;-66
2022/01/22 08:12:55;;;;;;;14.90;9.83;;;;;;;;;;5032919;28;20407;-66
2022/01/22 08:15:21;;;;;;;12.93;7.47;;;;;;;;;;5033050;28;20432;-66
2022/01/22 08:17:48;;;;;;;11.23;8.60;;;;;;;;;;5032240;28;20506;-69
2022/01/22 08:20:16;;;;;;;10.60;7.43;;;;;;;;;;5032756;28;20426;-67
2022/01/22 08:22:45;;;;;;;13.33;8.03;;;;;;;;;;5032173;28;20422;-67
2022/01/22 08:25:12;;;;;;;8.40;5.73;;;;;;;;;;5031649;28;20423;-64
2022/01/22 08:28:52;;;;;;;12.43;8.97;;;;;;;;;;5032242;28;20462;-53
2022/01/22 08:30:32;;;;;;;11.20;7.77;;;;;;;;;;5032148;28;20784;-54
2022/01/22 08:38:17;;;;;;;14.27;8.33;;;;;;;;;;5032483;28;20422;-55
2022/01/22 08:40:44;;;;;;;10.97;7.60;;;;;;;;;;5030644;28;20424;-56
2022/01/22 08:43:10;;;;;;;13.20;10.10;;;;;;;;;;5030835;28;20438;-57
2022/01/22 08:45:36;;;;;;;10.03;8.00;;;;;;;;;;5032069;28;20963;-53
2022/01/22 08:48:03;;;;;;;12.37;8.87;;;;;;;;;;5039616;28;20484;-55
2022/01/22 08:50:29;;;;;;;10.00;7.60;;;;;;;;;;5032330;28;20798;-53
2022/01/22 08:52:55;;;;;;;13.10;8.73;;;;;;;;;;5033011;28;20425;-58
2022/01/22 08:55:21;;;;;;;10.30;7.10;;;;;;;;;;5033211;28;21053;-57
2022/01/22 08:57:49;;;;;;;17.10;10.03;;;;;;;;;;5031157;28;20433;-56
2022/01/22 09:00:18;;;;;;;10.90;7.90;;;;;;;;;;5030823;28;20439;-55
2022/01/22 09:02:45;;;;;;;16.60;8.77;;;;;;;;;;5031841;28;20833;-57
2022/01/22 09:05:11;;;;;;;15.17;9.50;;;;;;;;;;5035328;28;20422;-55
2022/01/22 09:07:38;;;;;;;11.67;8.60;;;;;;;;;;5035929;28;20517;-55
2022/01/22 09:10:05;;;;;;;11.10;9.00;;;;;;;;;;5034532;28;20422;-54
2022/01/22 09:12:31;;;;;;;16.40;9.10;;;;;;;;;;5034395;28;20407;-59
2022/01/22 09:14:57;;;;;;;11.57;9.10;;;;;;;;;;5035023;28;20938;-53
2022/01/22 09:17:23;;;;;;;12.10;7.50;;;;;;;;;;5034998;28;20423;-56
2022/01/22 09:19:56;;;;;;;11.77;8.40;;;;;;;;;;5034353;28;20446;-54
2022/01/22 09:22:22;;;;;;;13.73;9.63;;;;;;;;;;5033988;28;20418;-56
2022/01/22 09:24:49;;;;;;;13.70;9.30;;;;;;;;;;5034151;28;20438;-58
2022/01/22 09:27:16;;;;;;;13.57;9.57;;;;;;;;;;5034909;28;20410;-58
2022/01/22 09:29:42;;;;;;;15.63;8.70;;;;;;;;;;5035050;28;20444;-54
2022/01/22 09:32:08;;;;;;;11.50;8.90;;;;;;;;;;5034700;28;20414;-56
2022/01/22 09:34:34;;;;;;;12.60;9.20;;;;;;;;;;5033973;28;20454;-58
2022/01/22 09:37:01;;;;;;;13.50;9.47;;;;;;;;;;5034994;28;20418;-55
2022/01/22 09:39:27;;;;;;;14.27;9.63;;;;;;;;;;5034569;28;20441;-54
2022/01/22 09:41:53;;;;;;;13.67;9.93;;;;;;;;;;5035427;28;20506;-57
2022/01/22 09:44:19;;;;;;;13.10;9.87;;;;;;;;;;5035059;28;20508;-56
2022/01/22 09:46:46;;;;;;;13.70;9.40;;;;;;;;;;5034781;28;20780;-53
2022/01/22 09:49:12;;;;;;;13.30;9.57;;;;;;;;;;5034448;28;20457;-55
2022/01/22 09:51:39;;;;;;;13.87;8.27;;;;;;;;;;5049058;28;20443;-62
2022/01/22 09:54:10;;;;;;;13.47;8.90;;;;;;;;;;5035047;28;20434;-56
2022/01/22 09:56:36;;;;;;;11.30;7.50;;;;;;;;;;5033999;28;20817;-54
2022/01/22 09:59:02;;;;;;;15.33;9.27;;;;;;;;;;5035140;28;20414;-58
2022/01/22 10:01:30;;;;;;;12.20;8.97;;;;;;;;;;5035403;28;20480;-56
2022/01/22 10:04:00;;;;;;;12.37;7.67;;;;;;;;;;5035120;28;20803;-59
2022/01/22 10:06:28;;;;;;;13.33;8.67;;;;;;;;;;5035358;28;20789;-55
2022/01/22 10:09:25;;;;;;;10.50;8.00;;;;;;;;;;5034894;28;20462;-60
2022/01/22 10:12:06;;;;;;;9.90;7.97;;;;;;;;;;5035136;28;20557;-54
2022/01/22 10:14:32;;;;;;;13.30;8.87;;;;;;;;;;5042316;28;20422;-61
2022/01/22 10:16:58;;;;;;;11.47;8.03;;;;;;;;;;5035075;28;20481;-57
2022/01/22 10:19:25;;;;;;;11.73;8.87;;;;;;;;;;5035095;28;20414;-56
2022/01/22 10:21:57;;;;;;;11.53;7.40;;;;;;;;;;5035012;28;20406;-63
2022/01/22 10:24:25;;;;;;;12.23;8.37;;;;;;;;;;5035581;28;20445;-60
2022/01/22 10:27:10;;;;;;;12.63;8.57;;;;;;;;;;5035047;28;20431;-59
2022/01/22 10:29:36;;;;;;;12.47;9.13;;;;;;;;;;5034946;28;20418;-64
2022/01/22 10:32:04;;;;;;;14.40;8.43;;;;;;;;;;5041599;28;20417;-61
2022/01/22 10:34:30;;;;;;;15.13;8.37;;;;;;;;;;5042019;28;20439;-60
2022/01/22 10:37:02;;;;;;;12.57;8.40;;;;;;;;;;5036921;28;20920;-58
2022/01/22 10:39:30;;;;;;;12.73;7.73;;;;;;;;;;5034438;28;20406;-63
2022/01/22 10:41:56;;;;;;;12.77;8.23;;;;;;;;;;5038248;28;20414;-65
2022/01/22 10:44:37;;;;;;;12.60;8.90;;;;;;;;;;5039930;28;20527;-62
2022/01/22 10:47:04;;;;;;;9.53;8.03;;;;;;;;;;5038217;28;20399;-62
2022/01/22 10:49:30;;;;;;;11.20;7.47;;;;;;;;;;5036252;28;20985;-60
2022/01/22 10:52:00;;;;;;;11.63;8.00;;;;;;;;;;5034147;28;20450;-60
2022/01/22 10:54:31;;;;;;;13.77;7.27;;;;;;;;;;5034251;28;20935;-59
2022/01/22 10:57:10;;;;;;;10.97;7.30;;;;;;;;;;5037133;28;20410;-59
2022/01/22 10:59:36;;;;;;;9.00;7.73;;;;;;;;;;5046156;28;20471;-59
2022/01/22 11:02:04;;;;;;;12.40;8.30;;;;;;;;;;5040101;28;20415;-57
2022/01/22 11:04:36;;;;;;;13.27;7.93;;;;;;;;;;5035258;28;20443;-57
2022/01/22 11:07:09;;;;;;;10.97;8.20;;;;;;;;;;5035966;28;20476;-62
2022/01/22 11:09:36;;;;;;;11.30;8.00;;;;;;;;;;5038554;28;20775;-63
2022/01/22 11:12:05;;;;;;;9.73;7.93;;;;;;;;;;5036451;28;20164;-56
2022/01/22 11:14:33;;;;;;;11.60;8.33;;;;;;;;;;5043573;28;20426;-55
2022/01/22 11:16:59;;;;;;;9.17;7.10;;;;;;;;;;5041292;28;20441;-52
2022/01/22 11:19:30;;;;;;;8.40;6.53;;;;;;;;;;5034157;28;20777;-59
2022/01/22 11:21:57;;;;;;;10.90;7.97;;;;;;;;;;5042561;28;20399;-54
2022/01/22 11:24:25;;;;;;;10.83;8.10;;;;;;;;;;5036910;28;20426;-56
2022/01/22 11:26:53;;;;;;;11.50;8.00;;;;;;;;;;5048641;28;20523;-52
2022/01/22 11:29:22;;;;;;;11.57;7.20;;;;;;;;;;5037357;28;20512;-60
2022/01/22 11:31:48;;;;;;;11.60;8.20;;;;;;;;;;5037760;28;20414;-58
2022/01/22 11:34:17;;;;;;;10.17;7.77;;;;;;;;;;5047991;28;20449;-61
2022/01/22 11:36:46;;;;;;;10.70;7.40;;;;;;;;;;5052365;28;20774;-58
2022/01/22 11:39:19;;;;;;;15.60;7.30;;;;;;;;;;5033230;28;20418;-59
2022/01/22 11:41:57;;;;;;;15.90;8.50;;;;;;;;;;5014059;28;20395;-68
2022/01/22 11:44:30;;;;;;;10.67;7.43;;;;;;;;;;5027210;28;20484;-58
2022/01/22 11:47:08;;;;;;;12.30;8.70;;;;;;;;;;5032640;28;20429;-67
2022/01/22 11:49:35;;;;;;;16.03;7.50;;;;;;;;;;5032416;28;20751;-64
2022/01/22 11:52:13;;;;;;;11.30;7.47;;;;;;;;;;5032879;28;20907;-60
2022/01/22 11:54:48;;;;;;;12.50;7.80;;;;;;;;;;5031611;28;20431;-63
2022/01/22 11:57:15;;;;;;;8.80;6.83;;;;;;;;;;5030479;28;20425;-68
2022/01/22 11:59:43;;;;;;;10.53;7.90;;;;;;;;;;5032188;28;20414;-60
2022/01/22 12:02:13;;;;;;;10.40;7.20;;;;;;;;;;5050209;23;20496;-77
2022/01/22 12:04:39;;;;;;;14.80;7.80;;;;;;;;;;5036211;28;20584;-76
2022/01/22 12:07:05;;;;;;;10.30;7.68;;;;;;;;;;5035665;28;20560;-77
2022/01/22 12:09:40;;;;;;;11.15;8.13;;;;;;;;;;5037051;28;20577;-78
2022/01/22 12:15:10;;;;;;;10.87;6.80;;;;;;;;;;5035853;28;20409;-78
2022/01/22 12:23:01;;;;;;;10.57;8.03;;;;;;;;;;5039062;28;20422;-77
2022/01/22 12:25:30;;;;;;;11.10;8.10;;;;;;;;;;5039094;28;20493;-77
2022/01/22 12:27:57;;;;;;;12.37;8.47;;;;;;;;;;5039436;28;20450;-77
2022/01/22 12:30:38;;;;;;;17.80;8.40;;;;;;;;;;5039813;28;20842;-77
2022/01/22 12:33:07;;;;;;;11.63;7.43;;;;;;;;;;5043897;28;20518;-78
2022/01/22 12:35:35;;;;;;;13.13;8.15;;;;;;;;;;5042385;28;20496;-78
2022/01/22 12:38:27;;;;;;;10.40;7.20;;;;;;;;;;5044583;28;20179;-78
2022/01/22 12:41:00;;;;;;;17.77;8.90;;;;;;;;;;5041619;28;20418;-77
2022/01/22 12:43:33;;;;;;;13.07;8.37;;;;;;;;;;5042217;28;20406;-78
2022/01/22 12:46:03;;;;;;;11.37;7.87;;;;;;;;;;5054789;28;20456;-78
2022/01/22 12:48:31;;;;;;;12.40;7.93;;;;;;;;;;5054324;28;20450;-77
2022/01/22 12:51:01;;;;;;;13.23;7.80;;;;;;;;;;5049412;28;20417;-77
2022/01/22 12:53:27;;;;;;;10.43;7.70;;;;;;;;;;5050982;28;20418;-77
2022/01/22 12:58:21;;;;;;;13.60;7.53;;;;;;;;;;5050546;28;20476;-78
2022/01/22 13:00:47;;;;;;;13.90;8.30;;;;;;;;;;5048951;28;20746;-77
2022/01/22 13:03:13;;;;;;;12.83;7.93;;;;;;;;;;5051434;28;20410;-77
2022/01/22 13:05:45;;;;;;;12.90;9.50;;;;;;;;;;5049023;28;20425;-78
2022/01/22 13:08:11;;;;;;;10.33;8.53;;;;;;;;;;5058440;28;20446;-77
2022/01/22 13:10:43;;;;;;;11.43;7.87;;;;;;;;;;5044501;28;20507;-79
2022/01/22 13:13:14;;;;;;;13.77;8.53;;;;;;;;;;5054219;28;20449;-78
2022/01/22 13:15:40;;;;;;;14.87;9.47;;;;;;;;;;5046383;23;20423;31
2022/01/22 13:18:06;;;;;;;15.73;10.17;;;;;;;;;;5022391;28;20537;-78
2022/01/22 13:20:34;;;;;;;11.80;9.37;;;;;;;;;;5039177;28;20489;-78
2022/01/22 13:23:02;;;;;;;15.10;10.30;;;;;;;;;;5022133;28;20970;-78
2022/01/22 13:25:29;;;;;;;15.33;9.17;;;;;;;;;;5018582;28;20816;-79
2022/01/22 13:27:59;;;;;;;12.60;8.47;;;;;;;;;;5019525;28;20454;-78
2022/01/22 13:30:31;;;;;;;11.60;8.47;;;;;;;;;;5022548;28;20412;-79
2022/01/22 13:33:03;;;;;;;14.23;8.83;;;;;;;;;;5019561;28;20384;-78
2022/01/22 13:48:59;;;;;;;15.53;9.70;;;;;;;;;;5037819;28;20445;-78
2022/01/22 13:51:28;;;;;;;12.00;9.03;;;;;;;;;;5038390;28;20411;-78
2022/01/22 13:53:58;;;;;;;13.30;8.30;;;;;;;;;;5036824;28;20406;-77
2022/01/22 13:56:44;;;;;;;14.87;9.40;;;;;;;;;;5036495;28;20450;-77
2022/01/22 13:59:13;;;;;;;14.73;8.07;;;;;;;;;;5034724;28;20798;-79
2022/01/22 14:01:49;;;;;;;12.80;8.90;;;;;;;;;;5020831;28;20774;-78
2022/01/22 14:04:15;;;;;;;17.20;8.90;;;;;;;;;;5030809;28;20891;-79
2022/01/22 14:06:46;;;;;;;16.93;10.90;;;;;;;;;;5024756;28;20913;-78
2022/01/22 14:09:19;;;;;;;14.13;9.97;;;;;;;;;;5040099;28;20443;-79
2022/01/22 14:12:05;;;;;;;13.67;8.93;;;;;;;;;;5026006;28;20495;-79
2022/01/22 14:14:49;;;;;;;17.70;9.77;;;;;;;;;;5017476;28;20434;-79
2022/01/22 14:17:16;;;;;;;18.63;10.37;;;;;;;;;;5030716;28;20465;-79
2022/01/22 14:19:42;;;;;;;14.03;10.10;;;;;;;;;;5022198;28;20416;-78
2022/01/22 14:22:08;;;;;;;16.00;9.97;;;;;;;;;;5040560;28;20395;-78
2022/01/22 14:24:34;;;;;;;14.97;10.03;;;;;;;;;;5022762;28;20406;-78
2022/01/22 14:27:00;;;;;;;12.57;9.47;;;;;;;;;;5036131;28;20419;-78
2022/01/22 14:29:26;;;;;;;13.07;10.10;;;;;;;;;;5019793;28;20456;-78
2022/01/22 14:31:59;;;;;;;17.50;9.90;;;;;;;;;;5017275;28;20943;-78
2022/01/22 14:34:45;;;;;;;15.63;9.87;;;;;;;;;;5018536;28;20439;-79
2022/01/22 14:37:24;;;;;;;14.07;10.17;;;;;;;;;;5000633;28;20794;-78
2022/01/22 14:45:58;;;;;;;17.03;10.40;;;;;;;;;;4977140;28;20852;-79
2022/01/22 14:48:25;;;;;;;15.03;10.00;;;;;;;;;;4977914;28;20514;-78
2022/01/22 14:50:51;;;;;;;12.97;8.67;;;;;;;;;;5000169;28;20491;-79
2022/01/22 14:53:17;;;;;;;16.73;10.27;;;;;;;;;;5018519;28;20407;-79
2022/01/22 14:55:50;;;;;;;13.57;9.47;;;;;;;;;;5022657;28;20477;-78
2022/01/22 14:58:16;;;;;;;42.17;21.43;;;;;;;;;;5049147;28;20850;-79
2022/01/22 15:00:42;;;;;;;14.00;8.73;;;;;;;;;;5054564;28;20418;-78
2022/01/22 15:03:08;;;;;;;17.40;10.00;;;;;;;;;;5055399;28;20437;-79
2022/01/22 15:05:34;;;;;;;11.80;8.20;;;;;;;;;;5046754;28;20414;-79
2022/01/22 15:08:00;;;;;;;19.40;9.10;;;;;;;;;;5038662;28;20481;-78
2022/01/22 15:10:27;;;;;;;12.73;9.30;;;;;;;;;;5034368;28;20431;-77
2022/01/22 15:12:53;;;;;;;12.67;9.47;;;;;;;;;;5035008;28;20403;-80
2022/01/22 15:15:20;;;;;;;12.23;8.57;;;;;;;;;;5037602;28;20486;-77
2022/01/22 15:20:16;;;;;;;13.43;8.57;;;;;;;;;;5017245;28;20926;-78
2022/01/22 15:22:42;;;;;;;11.97;8.60;;;;;;;;;;5016711;28;20962;-77
2022/01/22 15:25:08;;;;;;;13.97;7.47;;;;;;;;;;5022488;28;20423;-78
2022/01/22 15:27:34;;;;;;;14.37;8.70;;;;;;;;;;5032531;28;20465;-79
2022/01/22 15:30:21;;;;;;;14.00;9.60;;;;;;;;;;5018497;28;20404;-79
2022/01/22 15:32:55;;;;;;;10.80;7.33;;;;;;;;;;5017154;28;20387;-78
2022/01/22 15:35:22;;;;;;;12.50;8.53;;;;;;;;;;5017700;28;20855;-79
2022/01/22 15:37:51;;;;;;;15.80;10.30;;;;;;;;;;5018299;28;20849;-78
2022/01/22 15:40:18;;;;;;;11.60;9.57;;;;;;;;;;5019280;28;20481;-78
2022/01/22 15:42:45;;;;;;;16.37;9.40;;;;;;;;;;5021996;28;20497;-78
2022/01/22 15:45:11;;;;;;;16.37;9.97;;;;;;;;;;5018762;28;20519;-79
2022/01/22 15:47:37;;;;;;;13.93;9.63;;;;;;;;;;5019114;28;20490;-78
2022/01/22 15:50:04;;;;;;;17.50;10.70;;;;;;;;;;5018466;28;20483;-79
2022/01/22 15:52:31;;;;;;;17.17;9.50;;;;;;;;;;5019398;28;20400;-79
2022/01/22 15:54:58;;;;;;;15.40;11.13;;;;;;;;;;5018625;28;20404;-79
2022/01/22 15:57:24;;;;;;;14.17;9.23;;;;;;;;;;5018559;28;20518;-79
2022/01/22 15:59:50;;;;;;;18.27;10.30;;;;;;;;;;5018145;28;20499;-78
2022/01/22 16:02:18;;;;;;;14.57;10.40;;;;;;;;;;5017290;28;20502;-78
2022/01/22 16:04:50;;;;;;;18.77;10.83;;;;;;;;;;5018228;28;20894;-78
2022/01/22 16:07:20;;;;;;;14.03;10.67;;;;;;;;;;5015948;28;20470;-78
2022/01/22 16:09:46;;;;;;;19.50;11.30;;;;;;;;;;5018518;28;20842;-78
2022/01/22 16:12:12;;;;;;;16.53;9.80;;;;;;;;;;5020591;28;20403;-78
2022/01/22 16:14:38;;;;;;;19.47;10.33;;;;;;;;;;5023193;28;20447;-78
2022/01/22 16:17:05;;;;;;;17.37;11.50;;;;;;;;;;5025227;28;20505;-79
2022/01/22 16:19:33;;;;;;;18.42;10.90;;;;;;;;;;5022462;28;21609;-78
2022/01/22 16:21:59;;;;;;;16.60;11.00;;;;;;;;;;5025438;28;20239;-79
2022/01/22 16:24:25;;;;;;;15.40;11.03;;;;;;;;;;5025229;28;20407;-79
2022/01/22 16:26:51;;;;;;;13.90;10.60;;;;;;;;;;5024963;28;20439;-79
2022/01/22 16:29:17;;;;;;;16.47;10.93;;;;;;;;;;5028276;28;20463;-78
2022/01/22 16:31:45;;;;;;;16.17;11.80;;;;;;;;;;5025159;28;20404;-78
2022/01/22 16:34:12;;;;;;;19.60;11.63;;;;;;;;;;5026360;28;20426;-78
2022/01/22 16:36:38;;;;;;;16.03;10.27;;;;;;;;;;5033466;28;20414;-79
2022/01/22 16:39:05;;;;;;;15.67;10.13;;;;;;;;;;5028999;28;20399;-79
2022/01/22 16:41:33;;;;;;;14.40;10.17;;;;;;;;;;5025607;28;20418;-79
2022/01/22 16:44:11;;;;;;;19.17;11.63;;;;;;;;;;5025286;28;20461;-79
2022/01/22 16:51:18;;;;;;;24.87;13.10;;;;;;;;;;5024900;28;20465;-78
2022/01/22 16:55:00;;;;;;;18.20;12.03;;;;;;;;;;5026431;28;20819;-78
2022/01/22 16:57:30;;;;;;;16.67;10.90;;;;;;;;;;5023502;28;20469;-78
2022/01/22 17:00:01;;;;;;;26.17;13.00;;;;;;;;;;5020540;28;20419;-78